createdAt,value
2023-03-25T06:47:54.880Z,101178.03
2023-03-25T06:53:08.264Z,101174.63
2023-03-25T06:58:12.520Z,101173.69
2023-03-25T07:03:17.070Z,101175.31
2023-03-25T07:08:24.199Z,101174.34
2023-03-25T07:13:35.253Z,101179.72
2023-03-25T07:18:43.688Z,101175.06
2023-03-25T07:23:59.518Z,101157.50
2023-03-25T07:29:04.750Z,101157.75
2023-03-25T07:34:22.417Z,101154.94
2023-03-25T07:39:26.989Z,101147.13
2023-03-25T07:44:32.438Z,101142.94
2023-03-25T07:49:41.004Z,101157.91
2023-03-25T07:55:09.910Z,101147.31
2023-03-25T08:00:26.987Z,101157.63
2023-03-25T08:05:40.694Z,101150.53
2023-03-25T08:10:50.450Z,101137.69
2023-03-25T08:15:55.876Z,101147.78
2023-03-25T08:21:06.213Z,101147.44
2023-03-25T08:26:16.086Z,101148.56
2023-03-25T08:31:22.862Z,101150.53
2023-03-25T08:36:32.328Z,101154.34
2023-03-25T09:27:37.948Z,101179.00
2023-03-25T09:32:44.169Z,101181.38
2023-03-25T09:38:03.580Z,101170.50
2023-03-25T09:43:27.257Z,101176.94
2023-03-25T09:48:49.241Z,101183.75
2023-03-25T09:54:01.537Z,101183.53
2023-03-25T09:59:19.332Z,101189.03
2023-03-25T10:04:54.908Z,101188.88
2023-03-25T10:10:15.300Z,101186.72
2023-03-25T10:15:32.228Z,101174.41
2023-03-25T10:20:48.337Z,101170.34
2023-03-25T10:26:00.212Z,101161.88
2023-03-25T10:31:07.854Z,101158.31
2023-03-25T10:36:20.561Z,101147.91
2023-03-25T10:41:33.431Z,101150.00
2023-03-25T10:46:47.679Z,101147.94
2023-03-25T10:51:59.632Z,101147.28
2023-03-25T10:57:06.580Z,101139.97
2023-03-25T11:02:28.159Z,101130.66
2023-03-25T14:51:58.833Z,100978.00
2023-03-25T14:57:08.045Z,100967.03
2023-03-25T15:02:34.582Z,100960.19
2023-03-25T15:07:52.909Z,100973.19
2023-03-25T15:13:07.481Z,100969.19
2023-03-25T15:18:31.182Z,100972.59
2023-03-25T15:23:47.569Z,100975.38
2023-03-25T15:29:17.022Z,100975.16
2023-03-25T15:35:03.498Z,100969.91
2023-03-25T15:40:22.570Z,100978.16
2023-03-25T15:45:55.363Z,100978.69
2023-03-25T15:51:22.632Z,100969.81
2023-03-25T15:56:31.021Z,100978.78
2023-03-25T16:01:37.588Z,100989.72
2023-03-25T16:06:47.089Z,100988.72
2023-03-25T16:12:01.207Z,100996.69
2023-03-25T16:17:34.571Z,101001.25
2023-03-25T18:08:00.790Z,100973.03
2023-03-25T18:13:08.122Z,100983.91
2023-03-25T18:18:16.727Z,100984.91
2023-03-25T19:09:29.549Z,100971.47
2023-03-25T19:14:34.362Z,100971.22
2023-03-25T19:19:46.948Z,100965.06
2023-03-25T19:25:11.812Z,100961.91
2023-03-25T20:14:22.543Z,100948.00
2023-03-25T20:19:40.355Z,100949.84
2023-03-25T20:24:46.615Z,100955.06
2023-03-25T20:29:51.188Z,100948.91
2023-03-25T20:34:56.649Z,100948.34
2023-03-25T21:20:27.394Z,100963.81
2023-03-25T21:25:50.436Z,100964.81
2023-03-25T21:31:17.223Z,100974.38
2023-03-25T22:25:14.957Z,100952.31
2023-03-25T22:30:18.113Z,100955.75
2023-03-25T22:35:21.769Z,100953.81
2023-03-25T22:40:28.892Z,100959.19
2023-03-25T22:45:32.072Z,100956.78
2023-03-25T22:50:35.952Z,100963.50
2023-03-25T22:55:42.317Z,100959.34
2023-03-25T23:00:48.400Z,100959.59
2023-03-25T23:05:58.527Z,100952.81
2023-03-25T23:11:11.821Z,100948.66
2023-03-25T23:16:23.203Z,100949.75
2023-03-25T23:21:36.024Z,100941.31
2023-03-25T23:26:50.618Z,100937.75
2023-03-25T23:31:55.953Z,100937.88
2023-03-25T23:37:06.600Z,100937.88
2023-03-25T23:42:11.187Z,100939.06
2023-03-25T23:47:15.425Z,100935.38
2023-03-25T23:52:18.590Z,100932.28
2023-03-25T23:57:27.402Z,100926.88
